createdAt,value
2022-11-08T00:03:16.094Z,31.88
2022-11-08T00:08:23.276Z,31.97
2022-11-08T00:13:30.474Z,31.72
2022-11-08T00:18:37.665Z,31.76
2022-11-08T00:23:44.863Z,31.64
2022-11-08T00:28:52.055Z,31.84
2022-11-08T00:33:59.273Z,31.83
2022-11-08T00:39:06.542Z,31.88
2022-11-08T00:44:13.766Z,32.00
2022-11-08T00:49:20.991Z,31.54
2022-11-08T00:54:28.186Z,31.79
2022-11-08T00:59:35.424Z,31.81
2022-11-08T01:04:42.611Z,31.78
2022-11-08T01:09:49.844Z,30.76
2022-11-08T01:14:57.078Z,31.21
2022-11-08T01:20:04.201Z,31.29
2022-11-08T01:25:11.367Z,31.55
2022-11-08T01:30:18.564Z,31.54
2022-11-08T01:35:25.763Z,31.01
2022-11-08T01:40:33.185Z,31.24
2022-11-08T01:45:40.335Z,31.24
2022-11-08T01:50:47.552Z,30.99
2022-11-08T01:55:54.816Z,30.83
2022-11-08T02:01:02.100Z,31.32
2022-11-08T02:06:09.259Z,31.04
2022-11-08T02:11:16.428Z,31.00
2022-11-08T02:16:23.656Z,31.07
2022-11-08T02:21:30.891Z,31.28
2022-11-08T02:26:38.102Z,31.37
2022-11-08T02:31:45.257Z,31.60
2022-11-08T02:36:52.473Z,31.75
2022-11-08T02:41:59.717Z,31.79
2022-11-08T02:47:06.905Z,32.22
2022-11-08T02:52:14.111Z,32.80
2022-11-08T02:57:21.339Z,32.93
2022-11-08T03:02:28.652Z,32.70
2022-11-08T03:07:35.775Z,32.71
2022-11-08T03:12:43.144Z,32.70
2022-11-08T03:17:50.204Z,32.49
2022-11-08T03:22:57.437Z,32.61
2022-11-08T03:28:04.718Z,32.42
2022-11-08T03:33:11.949Z,32.46
2022-11-08T03:38:19.470Z,32.32
2022-11-08T03:43:26.370Z,32.28
2022-11-08T03:48:33.563Z,32.27
2022-11-08T03:53:40.878Z,32.26
2022-11-08T03:58:48.100Z,32.13
2022-11-08T04:03:55.218Z,32.32
2022-11-08T04:09:02.493Z,32.29
2022-11-08T04:14:09.710Z,31.99
2022-11-08T04:19:16.902Z,31.92
2022-11-08T04:24:24.107Z,32.14
2022-11-08T04:29:31.323Z,32.26
2022-11-08T04:34:38.502Z,32.56
2022-11-08T04:39:45.671Z,32.53
2022-11-08T04:44:52.919Z,32.37
2022-11-08T04:50:00.129Z,32.24
2022-11-08T04:55:07.326Z,32.36
2022-11-08T05:00:14.686Z,32.15
2022-11-08T05:05:21.753Z,32.22
2022-11-08T05:10:28.956Z,32.16
2022-11-08T05:15:36.226Z,32.17
2022-11-08T05:20:43.390Z,32.19
2022-11-08T05:25:50.571Z,32.21
2022-11-08T05:30:57.813Z,32.13
2022-11-08T05:36:06.332Z,32.09
2022-11-08T05:41:12.920Z,31.96
2022-11-08T05:46:20.330Z,32.20
2022-11-08T05:51:27.562Z,32.17
2022-11-08T05:56:34.852Z,32.18
2022-11-08T06:01:42.241Z,32.20
2022-11-08T06:06:49.369Z,32.34
2022-11-08T06:11:56.633Z,32.39
2022-11-08T06:17:03.915Z,32.44
2022-11-08T06:22:11.351Z,32.54
2022-11-08T06:27:18.571Z,32.55
2022-11-08T06:32:25.802Z,32.59
2022-11-08T06:37:33.020Z,32.42
2022-11-08T06:42:40.250Z,32.67
2022-11-08T06:47:47.531Z,32.57
2022-11-08T06:52:54.683Z,33.36
2022-11-08T06:58:01.870Z,33.32
2022-11-08T07:03:09.215Z,33.27
2022-11-08T07:08:22.282Z,33.11
2022-11-08T07:13:23.487Z,33.08
2022-11-08T07:18:30.825Z,33.23
2022-11-08T07:23:37.899Z,33.33
2022-11-08T07:28:45.120Z,33.23
2022-11-08T07:33:52.330Z,33.17
2022-11-08T07:39:03.832Z,33.18
2022-11-08T07:44:06.761Z,33.13
2022-11-08T07:49:14.047Z,32.95
2022-11-08T07:54:21.240Z,32.86
2022-11-08T07:59:28.394Z,33.06
2022-11-08T08:04:35.609Z,32.87
2022-11-08T08:09:42.841Z,32.75
2022-11-08T08:14:50.044Z,32.68
2022-11-08T08:19:57.297Z,32.63
2022-11-08T08:25:04.472Z,32.56
2022-11-08T08:30:11.698Z,32.52
2022-11-08T08:35:18.964Z,32.65
2022-11-08T08:40:26.323Z,33.95
2022-11-08T08:45:33.487Z,33.26
2022-11-08T08:50:40.769Z,33.32
2022-11-08T08:55:47.909Z,33.17
2022-11-08T09:06:02.326Z,33.14
2022-11-08T09:11:09.476Z,33.20
2022-11-08T09:16:16.746Z,33.46
2022-11-08T09:21:24.137Z,33.29
2022-11-08T09:26:31.242Z,33.33
2022-11-08T09:31:38.458Z,33.63
2022-11-08T09:36:45.739Z,33.55
2022-11-08T09:41:55.484Z,33.72
2022-11-08T09:47:00.225Z,33.80
2022-11-08T09:52:07.492Z,34.06
2022-11-08T09:57:14.612Z,33.91
2022-11-08T10:02:21.958Z,34.00
2022-11-08T10:07:29.221Z,34.03
2022-11-08T10:12:36.503Z,34.04
2022-11-08T10:17:43.733Z,34.21
2022-11-08T10:22:50.957Z,34.12
2022-11-08T10:27:58.183Z,34.16
2022-11-08T10:33:05.492Z,34.60
2022-11-08T10:38:12.786Z,34.42
2022-11-08T10:43:20.352Z,34.34
2022-11-08T10:48:27.159Z,34.24
2022-11-08T10:53:34.434Z,34.46
2022-11-08T10:58:41.676Z,34.39
2022-11-08T11:03:48.838Z,34.48
2022-11-08T11:08:56.069Z,34.40
2022-11-08T11:14:03.275Z,34.54
2022-11-08T11:19:10.505Z,34.51
2022-11-08T11:24:19.322Z,34.51
2022-11-08T11:29:25.082Z,34.63
2022-11-08T11:34:32.475Z,34.66
2022-11-08T11:39:39.742Z,34.70
2022-11-08T11:44:46.937Z,34.76
2022-11-08T11:49:54.168Z,34.63
2022-11-08T11:55:01.480Z,34.71
2022-11-08T12:00:08.712Z,34.70
2022-11-08T12:05:15.935Z,34.54
2022-11-08T12:10:23.224Z,34.51
2022-11-08T12:15:30.404Z,34.49
2022-11-08T12:20:37.609Z,34.49
2022-11-08T12:25:44.799Z,34.61
2022-11-08T12:30:52.029Z,34.60
2022-11-08T12:35:59.222Z,34.62
2022-11-08T12:41:06.513Z,34.74
2022-11-08T12:46:13.738Z,34.75
2022-11-08T12:51:20.956Z,34.84
2022-11-08T12:56:28.192Z,34.84
2022-11-08T13:01:35.459Z,34.84
2022-11-08T13:06:42.795Z,35.03
2022-11-08T13:11:50.050Z,35.08
2022-11-08T13:16:57.291Z,35.02
2022-11-08T13:22:04.567Z,35.06
2022-11-08T13:27:12.029Z,35.12
2022-11-08T13:32:19.524Z,35.21
2022-11-08T13:37:26.704Z,35.18
2022-11-08T13:42:34.334Z,35.13
2022-11-08T13:47:41.462Z,35.08
2022-11-08T13:52:48.768Z,35.01
2022-11-08T13:57:55.990Z,35.17
2022-11-08T14:03:03.145Z,35.00
2022-11-08T14:08:10.457Z,34.94
2022-11-08T14:13:18.197Z,35.00
2022-11-08T14:18:24.940Z,34.98
2022-11-08T14:23:32.123Z,35.01
2022-11-08T14:28:39.313Z,35.11
2022-11-08T14:33:46.464Z,35.20
2022-11-08T14:38:53.976Z,35.22
2022-11-08T14:44:01.303Z,35.30
2022-11-08T14:49:08.493Z,35.48
2022-11-08T14:54:15.747Z,35.63
2022-11-08T14:59:23.225Z,35.69
2022-11-08T15:04:30.537Z,35.74
2022-11-08T15:09:38.327Z,35.63
2022-11-08T15:14:45.849Z,35.65
2022-11-08T15:19:53.101Z,35.70
2022-11-08T15:25:01.485Z,35.67
2022-11-08T15:30:08.664Z,35.75
2022-11-08T15:35:16.115Z,35.78
2022-11-08T15:40:23.534Z,35.85
2022-11-08T15:45:30.711Z,35.70
2022-11-08T15:50:37.919Z,35.67
2022-11-08T15:55:45.418Z,35.66
2022-11-08T16:00:53.160Z,35.68
2022-11-08T16:06:00.772Z,35.65
2022-11-08T16:11:08.473Z,35.69
2022-11-08T16:16:16.108Z,35.84
2022-11-08T16:21:23.797Z,35.83
2022-11-08T16:26:31.346Z,35.82
2022-11-08T16:31:38.824Z,35.98
2022-11-08T16:36:45.890Z,36.19
2022-11-08T16:41:55.689Z,36.33
2022-11-08T16:47:03.223Z,36.38
2022-11-08T16:52:10.540Z,36.35
2022-11-08T16:57:34.318Z,36.42
2022-11-08T17:02:25.515Z,36.19
2022-11-08T17:07:32.626Z,36.29
2022-11-08T17:12:39.872Z,36.39
2022-11-08T17:17:47.155Z,36.35
2022-11-08T17:22:54.656Z,36.18
2022-11-08T17:28:02.317Z,36.06
2022-11-08T17:33:09.807Z,36.06
2022-11-08T17:38:20.164Z,36.01
2022-11-08T17:43:27.794Z,36.03
2022-11-08T17:48:35.457Z,35.91
2022-11-08T17:53:43.118Z,35.92
2022-11-08T17:58:50.419Z,35.94
2022-11-08T18:03:58.050Z,36.01
2022-11-08T18:09:05.698Z,36.26
2022-11-08T18:14:13.356Z,36.42
2022-11-08T18:19:22.023Z,36.47
2022-11-08T18:24:29.324Z,36.54
2022-11-08T18:29:36.825Z,36.50
2022-11-08T18:34:44.462Z,36.45
2022-11-08T18:39:52.052Z,36.39
2022-11-08T18:45:00.100Z,36.55
2022-11-08T18:50:07.909Z,36.45
2022-11-08T18:55:15.517Z,36.42
2022-11-08T19:00:23.322Z,36.19
2022-11-08T19:05:31.067Z,36.24
2022-11-08T19:10:38.380Z,36.23
2022-11-08T19:15:45.753Z,36.16
2022-11-08T19:20:53.546Z,36.14
2022-11-08T19:26:01.901Z,36.14
2022-11-08T19:31:10.299Z,36.39
2022-11-08T19:36:19.005Z,36.78
2022-11-08T19:41:26.700Z,37.36
2022-11-08T19:46:34.420Z,37.18
2022-11-08T19:51:42.048Z,37.35
2022-11-08T19:57:04.217Z,37.53
2022-11-08T20:01:58.546Z,37.64
2022-11-08T20:07:06.227Z,37.65
2022-11-08T20:12:13.922Z,37.41
2022-11-08T20:17:21.639Z,37.18
2022-11-08T20:22:29.267Z,37.29
2022-11-08T20:27:36.702Z,37.36
2022-11-08T20:32:44.268Z,36.57
2022-11-08T20:37:51.904Z,36.41
2022-11-08T20:42:59.606Z,36.62
2022-11-08T20:48:07.166Z,37.53
2022-11-08T20:53:15.039Z,37.44
2022-11-08T20:58:22.620Z,37.44
2022-11-08T21:03:30.103Z,37.05
2022-11-08T21:13:47.333Z,37.17
2022-11-08T21:18:54.948Z,36.83
2022-11-08T21:24:02.350Z,37.10
2022-11-08T21:29:10.078Z,37.08
2022-11-08T21:34:17.810Z,36.55
2022-11-08T21:39:25.888Z,35.99
2022-11-08T21:44:33.326Z,36.08
2022-11-08T21:49:40.724Z,36.11
2022-11-08T21:54:47.881Z,35.72
2022-11-08T21:59:55.010Z,36.13
2022-11-08T22:05:02.240Z,36.21
2022-11-08T22:11:58.644Z,35.62
2022-11-08T22:17:05.835Z,36.07
2022-11-08T22:22:13.061Z,36.06
2022-11-08T22:27:21.281Z,35.95
2022-11-08T22:32:28.579Z,35.97
2022-11-08T22:37:35.801Z,35.70
2022-11-08T22:42:43.064Z,35.65
2022-11-08T22:50:54.955Z,35.17
2022-11-08T22:56:06.958Z,35.33
2022-11-08T23:01:09.524Z,35.08
2022-11-08T23:06:16.727Z,34.80
2022-11-08T23:11:23.922Z,34.46
2022-11-08T23:16:31.181Z,34.82
2022-11-08T23:21:38.325Z,34.71
2022-11-08T23:26:45.508Z,34.72
2022-11-08T23:31:52.803Z,34.83
2022-11-08T23:36:59.944Z,34.50
2022-11-08T23:42:07.084Z,33.53
2022-11-08T23:47:14.243Z,34.06
2022-11-08T23:52:21.399Z,33.77
2022-11-08T23:57:28.570Z,33.52
